X  Tanca Dades meteorològiques de l'aviació METAR     KAST Astoria Regional Airport
Temperatura
68°F Temperatura
55°F Rosada
64% Humitat



Vent
9 MPH
14 KM/H
4 M/S
8 NUS



250°
OSO
Condicions actuals

Majoritàriament núvols dispersos Majoritàriament núvols dispersos
Pressió 1022.32 (hPa) - 30.19 (inHg)
Visibilitat 9.9 (milla) - 16 (km)
Aeroport
Codi aeroport KAST

Ubicació: Astoria Regional Airport
Distància: 20 (mi)

Metar:
KAST 071955Z AUTO 25008KT 10SM SCT030 20/13 A3019 RMK AO2 SLP222 T02000133

Temps: 08-07-2020 12:55 PDT